Overview Statistics Trail Chart Weather Telemetry Raw packets
 

This is the latest recevied packets stored in our database for station/object IQ5YG-12. If no packets are shown the sender has not sent any packets the latest 24 hours.

If you compare the raw packets with similar data from other websites it may differ (especially the path), the reason is that we are not collecting packets from the same APRS-IS servers. Each APRS-IS server performes duplicate filtering, and which packet that is considered to be a duplicate may differ depending on which APRS-IS server you receive your data from.

<< 1 2 3 4 >>

1788566374: IQ5YG-12>APRSMC,TCPIP*,qAR,IU5SGO-10:T#586,974.3,31.9,41.6,1022.6,0.0,00000000

1788566367: IQ5YG-12>APRSMC,TCPIP*,qAR,IW5BLC-91:!4320.56N/01118.91E##IQ5YG-12/B=100/A=001417/N11

1788566367: IQ5YG-12>APRSMC,TCPIP*,qAR,IW5BLC-91:T#026,974.3,31.9,41.6,1022.6,0.0,00000000

1788564665: IQ5YG-12>APRSMC,TCPIP*,qAR,IZ5TIY-12:T#585,974.4,31.9,41.2,1022.7,0.0,00000000

1788564640: IQ5YG-12>APRSMC,TCPIP*,qAR,IW5BLC-91:T#025,974.4,31.9,41.2,1022.7,0.0,00000000

1788564640: IQ5YG-12>APRSMC,TCPIP*,qAR,IW5BLC-91:!4320.56N/01118.91E##IQ5YG-12/B=100/A=001417/N9

1788560887: IQ5YG-12>APRSMC,TCPIP*,qAR,IZ5CMC-13:T#584,974.6,31.8,40.1,1023.0,0.0,00000000

1788560887: IQ5YG-12>APRSMC,TCPIP*,qAR,IQ5VK-6:T#024,974.6,31.8,40.1,1023.0,0.0,00000000

1788560887: IQ5YG-12>APRSMC,TCPIP*,qAR,IZ5CMC-13:!4320.56N/01118.91E##IQ5YG-12/B=100/A=001417/N10

1788559048: IQ5YG-12>APRSMC,TCPIP*,qAR,IQ5ARI-15:T#583,974.6,31.8,39.3,1022.9,0.0,00000000

1788559048: IQ5YG-12>APRSMC,TCPIP*,qAR,IQ5ARI-15:!4320.56N/01118.91E##IQ5YG-12/B=100/A=001417/N10

1788557205: IQ5YG-12>APRSMC,TCPIP*,qAR,IZ5CMC-13:T#582,974.7,31.8,38.0,1023.1,0.0,00000000

1788557199: IQ5YG-12>APRSMC,TCPIP*,qAR,IW5BLC-91:T#022,974.7,31.8,38.0,1023.1,0.0,00000000

1788557199: IQ5YG-12>APRSMC,TCPIP*,qAR,IW5BLC-91:!4320.56N/01118.91E##IQ5YG-12/B=100/A=001417/N10

1788555379: IQ5YG-12>APRSMC,TCPIP*,qAR,IW5BLC-91::IQ5YG-12 :PARM.Press,Temp.in,Hum,QNH,Temp.out,track,-,-,-,-,-,-,-

1788555379: IQ5YG-12>APRSMC,TCPIP*,qAR,IW5BLC-91::IQ5YG-12 :UNIT.hPa,C deg,%,hPa,C deg,Y/N,O/N,O/N,O/N,O/N,O/N,O/N,O/N

1788555379: IQ5YG-12>APRSMC,TCPIP*,qAR,IW5BLC-91::IQ5YG-12 :EQNS.0,1,0,0,1,0,0,1,0,0,1,0,0,1,0

1788555379: IQ5YG-12>APRSMC,TCPIP*,qAR,IW5BLC-91:T#021,974.7,31.6,36.1,1023.1,0.0,00000000

1788555379: IQ5YG-12>APRSMC,TCPIP*,qAR,IW5BLC-91:!4320.56N/01118.91E##IQ5YG-12/B=100/A=001417/N10

1788553596: IQ5YG-12>APRSMC,TCPIP*,qAR,IU5SGO-10::IQ5YG-12 :PARM.Press,Temp.in,Hum,QNH,Temp.out,track,-,-,-,-,-,-,-

1788553596: IQ5YG-12>APRSMC,TCPIP*,qAR,IU5SGO-10:T#581,974.6,31.1,36.6,1023.1,0.0,00000000

1788553596: IQ5YG-12>APRSMC,TCPIP*,qAR,IU5SGO-10::IQ5YG-12 :UNIT.hPa,C deg,%,hPa,C deg,Y/N,O/N,O/N,O/N,O/N,O/N,O/N,O/N

1788553596: IQ5YG-12>APRSMC,TCPIP*,qAR,IU5SGO-10::IQ5YG-12 :EQNS.0,1,0,0,1,0,0,1,0,0,1,0,0,1,0

1788553583: IQ5YG-12>APRSMC,TCPIP*,qAR,IW5BLC-91:T#020,974.6,31.1,36.6,1023.1,0.0,00000000

1788553583: IQ5YG-12>APRSMC,TCPIP*,qAR,IW5BLC-91:!4320.56N/01118.91E##IQ5YG-12/B=100/A=001417/N9